sensor_id;sensor_type;location;lat;lon;timestamp;P1;durP1;ratioP1;P2;durP2;ratioP2
58412;SDS011;44209;52.952;6.790;2023-12-20T00:01:05;8.60;;;2.90;;
58412;SDS011;44209;52.952;6.790;2023-12-20T00:03:31;13.13;;;2.77;;
58412;SDS011;44209;52.952;6.790;2023-12-20T00:05:57;10.13;;;2.57;;
58412;SDS011;44209;52.952;6.790;2023-12-20T00:08:23;12.17;;;2.80;;
58412;SDS011;44209;52.952;6.790;2023-12-20T00:10:48;14.00;;;3.07;;
58412;SDS011;44209;52.952;6.790;2023-12-20T00:13:14;10.77;;;2.47;;
58412;SDS011;44209;52.952;6.790;2023-12-20T00:15:40;10.53;;;2.50;;
58412;SDS011;44209;52.952;6.790;2023-12-20T00:18:05;11.57;;;2.50;;
58412;SDS011;44209;52.952;6.790;2023-12-20T00:20:31;15.20;;;3.30;;
58412;SDS011;44209;52.952;6.790;2023-12-20T00:22:57;13.87;;;2.57;;
58412;SDS011;44209;52.952;6.790;2023-12-20T00:25:23;12.07;;;3.03;;
58412;SDS011;44209;52.952;6.790;2023-12-20T00:27:49;12.63;;;2.70;;
58412;SDS011;44209;52.952;6.790;2023-12-20T00:30:15;9.33;;;2.30;;
58412;SDS011;44209;52.952;6.790;2023-12-20T00:32:41;12.07;;;2.93;;
58412;SDS011;44209;52.952;6.790;2023-12-20T00:35:14;10.97;;;2.70;;
58412;SDS011;44209;52.952;6.790;2023-12-20T00:37:40;12.00;;;2.90;;
58412;SDS011;44209;52.952;6.790;2023-12-20T00:40:07;9.67;;;2.73;;
58412;SDS011;44209;52.952;6.790;2023-12-20T00:42:33;10.57;;;2.70;;
58412;SDS011;44209;52.952;6.790;2023-12-20T00:45:00;12.07;;;2.47;;
58412;SDS011;44209;52.952;6.790;2023-12-20T00:47:26;11.83;;;2.73;;
58412;SDS011;44209;52.952;6.790;2023-12-20T00:49:52;11.70;;;2.57;;
58412;SDS011;44209;52.952;6.790;2023-12-20T00:52:17;12.37;;;2.90;;
58412;SDS011;44209;52.952;6.790;2023-12-20T00:54:44;10.50;;;2.80;;
58412;SDS011;44209;52.952;6.790;2023-12-20T00:57:09;10.57;;;2.90;;
58412;SDS011;44209;52.952;6.790;2023-12-20T00:59:35;11.87;;;2.97;;
58412;SDS011;44209;52.952;6.790;2023-12-20T01:02:01;11.87;;;3.20;;
58412;SDS011;44209;52.952;6.790;2023-12-20T01:04:27;13.40;;;2.60;;
58412;SDS011;44209;52.952;6.790;2023-12-20T01:06:53;15.20;;;3.30;;
58412;SDS011;44209;52.952;6.790;2023-12-20T01:09:19;12.27;;;2.93;;
58412;SDS011;44209;52.952;6.790;2023-12-20T01:11:44;12.43;;;2.83;;
58412;SDS011;44209;52.952;6.790;2023-12-20T01:14:13;11.33;;;3.00;;
58412;SDS011;44209;52.952;6.790;2023-12-20T01:16:38;12.27;;;2.70;;
58412;SDS011;44209;52.952;6.790;2023-12-20T01:19:04;14.33;;;2.97;;
58412;SDS011;44209;52.952;6.790;2023-12-20T01:21:30;11.83;;;3.20;;
58412;SDS011;44209;52.952;6.790;2023-12-20T01:23:55;10.83;;;3.00;;
58412;SDS011;44209;52.952;6.790;2023-12-20T01:26:21;14.17;;;3.73;;
58412;SDS011;44209;52.952;6.790;2023-12-20T01:28:47;15.37;;;3.20;;
58412;SDS011;44209;52.952;6.790;2023-12-20T01:31:12;13.07;;;3.07;;
58412;SDS011;44209;52.952;6.790;2023-12-20T01:33:38;12.73;;;3.10;;
58412;SDS011;44209;52.952;6.790;2023-12-20T01:36:04;16.83;;;4.07;;
58412;SDS011;44209;52.952;6.790;2023-12-20T01:38:30;12.77;;;3.17;;
58412;SDS011;44209;52.952;6.790;2023-12-20T01:40:55;12.53;;;3.40;;
58412;SDS011;44209;52.952;6.790;2023-12-20T01:43:21;15.90;;;3.20;;
58412;SDS011;44209;52.952;6.790;2023-12-20T01:45:47;14.20;;;3.63;;
58412;SDS011;44209;52.952;6.790;2023-12-20T01:48:13;13.40;;;3.03;;
58412;SDS011;44209;52.952;6.790;2023-12-20T01:50:41;15.97;;;3.93;;
58412;SDS011;44209;52.952;6.790;2023-12-20T01:53:08;17.17;;;3.47;;
58412;SDS011;44209;52.952;6.790;2023-12-20T01:55:38;16.20;;;3.43;;
58412;SDS011;44209;52.952;6.790;2023-12-20T01:58:05;14.90;;;3.10;;
58412;SDS011;44209;52.952;6.790;2023-12-20T02:00:32;20.97;;;3.90;;
58412;SDS011;44209;52.952;6.790;2023-12-20T02:03:01;19.87;;;3.83;;
58412;SDS011;44209;52.952;6.790;2023-12-20T02:05:28;14.47;;;4.13;;
58412;SDS011;44209;52.952;6.790;2023-12-20T02:07:55;14.03;;;3.77;;
58412;SDS011;44209;52.952;6.790;2023-12-20T02:10:21;17.80;;;3.53;;
58412;SDS011;44209;52.952;6.790;2023-12-20T02:12:47;18.30;;;3.87;;
58412;SDS011;44209;52.952;6.790;2023-12-20T02:15:12;20.40;;;3.90;;
58412;SDS011;44209;52.952;6.790;2023-12-20T02:17:38;14.77;;;3.43;;
58412;SDS011;44209;52.952;6.790;2023-12-20T02:20:05;20.43;;;3.70;;
58412;SDS011;44209;52.952;6.790;2023-12-20T02:22:31;14.93;;;3.93;;
58412;SDS011;44209;52.952;6.790;2023-12-20T02:24:57;19.43;;;4.10;;
58412;SDS011;44209;52.952;6.790;2023-12-20T02:27:23;18.83;;;4.10;;
58412;SDS011;44209;52.952;6.790;2023-12-20T02:29:49;15.60;;;3.90;;
58412;SDS011;44209;52.952;6.790;2023-12-20T02:32:19;13.07;;;3.80;;
58412;SDS011;44209;52.952;6.790;2023-12-20T02:34:47;12.97;;;3.50;;
58412;SDS011;44209;52.952;6.790;2023-12-20T02:37:13;14.03;;;3.97;;
58412;SDS011;44209;52.952;6.790;2023-12-20T02:39:39;15.03;;;4.00;;
58412;SDS011;44209;52.952;6.790;2023-12-20T02:42:05;16.50;;;4.40;;
58412;SDS011;44209;52.952;6.790;2023-12-20T02:44:30;16.20;;;3.90;;
58412;SDS011;44209;52.952;6.790;2023-12-20T02:46:56;16.40;;;4.00;;
58412;SDS011;44209;52.952;6.790;2023-12-20T02:49:22;18.87;;;4.97;;
58412;SDS011;44209;52.952;6.790;2023-12-20T02:51:47;17.07;;;4.00;;
58412;SDS011;44209;52.952;6.790;2023-12-20T02:54:13;12.33;;;3.17;;
58412;SDS011;44209;52.952;6.790;2023-12-20T02:56:39;14.57;;;4.00;;
58412;SDS011;44209;52.952;6.790;2023-12-20T02:59:05;18.53;;;3.60;;
58412;SDS011;44209;52.952;6.790;2023-12-20T03:01:31;16.43;;;3.70;;
58412;SDS011;44209;52.952;6.790;2023-12-20T03:03:57;19.00;;;3.73;;
58412;SDS011;44209;52.952;6.790;2023-12-20T03:06:23;17.77;;;3.67;;
58412;SDS011;44209;52.952;6.790;2023-12-20T03:08:49;16.23;;;4.53;;
58412;SDS011;44209;52.952;6.790;2023-12-20T03:11:15;14.43;;;3.73;;
58412;SDS011;44209;52.952;6.790;2023-12-20T03:13:41;14.07;;;3.60;;
58412;SDS011;44209;52.952;6.790;2023-12-20T03:16:10;16.50;;;4.33;;
58412;SDS011;44209;52.952;6.790;2023-12-20T03:18:37;17.10;;;4.07;;
58412;SDS011;44209;52.952;6.790;2023-12-20T03:21:02;14.73;;;4.23;;
58412;SDS011;44209;52.952;6.790;2023-12-20T03:23:29;21.57;;;4.83;;
58412;SDS011;44209;52.952;6.790;2023-12-20T03:25:55;20.33;;;5.23;;
58412;SDS011;44209;52.952;6.790;2023-12-20T03:28:21;15.83;;;4.53;;
58412;SDS011;44209;52.952;6.790;2023-12-20T03:30:48;25.73;;;4.73;;
58412;SDS011;44209;52.952;6.790;2023-12-20T03:33:14;17.17;;;4.30;;
58412;SDS011;44209;52.952;6.790;2023-12-20T03:35:40;20.60;;;4.47;;
58412;SDS011;44209;52.952;6.790;2023-12-20T03:38:05;17.97;;;4.77;;
58412;SDS011;44209;52.952;6.790;2023-12-20T03:40:31;18.80;;;4.60;;
58412;SDS011;44209;52.952;6.790;2023-12-20T03:42:57;23.83;;;4.60;;
58412;SDS011;44209;52.952;6.790;2023-12-20T03:45:23;23.60;;;4.37;;
58412;SDS011;44209;52.952;6.790;2023-12-20T03:47:48;23.20;;;4.60;;
58412;SDS011;44209;52.952;6.790;2023-12-20T03:50:14;20.23;;;4.83;;
58412;SDS011;44209;52.952;6.790;2023-12-20T03:52:40;20.77;;;4.77;;
58412;SDS011;44209;52.952;6.790;2023-12-20T03:55:06;20.77;;;4.67;;
58412;SDS011;44209;52.952;6.790;2023-12-20T03:57:32;22.40;;;4.80;;
58412;SDS011;44209;52.952;6.790;2023-12-20T03:59:58;21.90;;;4.90;;
58412;SDS011;44209;52.952;6.790;2023-12-20T04:02:24;24.77;;;5.03;;
58412;SDS011;44209;52.952;6.790;2023-12-20T04:04:50;26.17;;;5.53;;
58412;SDS011;44209;52.952;6.790;2023-12-20T04:07:18;20.93;;;5.03;;
58412;SDS011;44209;52.952;6.790;2023-12-20T04:09:44;18.20;;;4.60;;
58412;SDS011;44209;52.952;6.790;2023-12-20T04:12:09;25.93;;;6.30;;
58412;SDS011;44209;52.952;6.790;2023-12-20T04:14:35;23.07;;;5.50;;
58412;SDS011;44209;52.952;6.790;2023-12-20T04:17:00;20.60;;;5.73;;
58412;SDS011;44209;52.952;6.790;2023-12-20T04:19:26;22.93;;;5.33;;
58412;SDS011;44209;52.952;6.790;2023-12-20T04:21:52;22.07;;;5.47;;
58412;SDS011;44209;52.952;6.790;2023-12-20T04:24:18;20.23;;;5.43;;
58412;SDS011;44209;52.952;6.790;2023-12-20T04:26:43;23.87;;;5.33;;
58412;SDS011;44209;52.952;6.790;2023-12-20T04:29:09;27.03;;;5.67;;
58412;SDS011;44209;52.952;6.790;2023-12-20T04:31:35;18.07;;;5.13;;
58412;SDS011;44209;52.952;6.790;2023-12-20T04:34:00;21.33;;;5.20;;
58412;SDS011;44209;52.952;6.790;2023-12-20T04:36:26;20.10;;;5.27;;
58412;SDS011;44209;52.952;6.790;2023-12-20T04:38:52;29.57;;;5.77;;
58412;SDS011;44209;52.952;6.790;2023-12-20T04:41:18;17.77;;;4.70;;
58412;SDS011;44209;52.952;6.790;2023-12-20T04:43:44;26.57;;;5.33;;
58412;SDS011;44209;52.952;6.790;2023-12-20T04:46:10;18.00;;;5.40;;
58412;SDS011;44209;52.952;6.790;2023-12-20T04:48:36;21.33;;;5.67;;
58412;SDS011;44209;52.952;6.790;2023-12-20T04:51:01;22.83;;;5.20;;
58412;SDS011;44209;52.952;6.790;2023-12-20T04:53:27;24.67;;;5.77;;
58412;SDS011;44209;52.952;6.790;2023-12-20T04:55:53;23.40;;;5.90;;
58412;SDS011;44209;52.952;6.790;2023-12-20T04:58:19;23.23;;;6.10;;
58412;SDS011;44209;52.952;6.790;2023-12-20T05:00:44;28.63;;;5.30;;
58412;SDS011;44209;52.952;6.790;2023-12-20T05:03:10;18.43;;;5.17;;
58412;SDS011;44209;52.952;6.790;2023-12-20T05:05:36;25.03;;;6.30;;
58412;SDS011;44209;52.952;6.790;2023-12-20T05:08:01;26.47;;;6.03;;
58412;SDS011;44209;52.952;6.790;2023-12-20T05:10:27;22.00;;;4.93;;
58412;SDS011;44209;52.952;6.790;2023-12-20T05:12:53;26.23;;;5.10;;
58412;SDS011;44209;52.952;6.790;2023-12-20T05:15:19;21.50;;;5.20;;
58412;SDS011;44209;52.952;6.790;2023-12-20T05:17:44;26.60;;;5.30;;
58412;SDS011;44209;52.952;6.790;2023-12-20T05:20:10;25.07;;;5.87;;
58412;SDS011;44209;52.952;6.790;2023-12-20T05:22:36;19.87;;;4.87;;
58412;SDS011;44209;52.952;6.790;2023-12-20T05:25:02;24.47;;;5.80;;
58412;SDS011;44209;52.952;6.790;2023-12-20T05:27:27;22.73;;;5.40;;
58412;SDS011;44209;52.952;6.790;2023-12-20T05:29:53;23.90;;;5.37;;
58412;SDS011;44209;52.952;6.790;2023-12-20T05:32:23;30.03;;;6.27;;
58412;SDS011;44209;52.952;6.790;2023-12-20T05:34:49;27.80;;;6.00;;
58412;SDS011;44209;52.952;6.790;2023-12-20T05:37:14;21.90;;;5.60;;
58412;SDS011;44209;52.952;6.790;2023-12-20T05:39:40;22.27;;;5.57;;
58412;SDS011;44209;52.952;6.790;2023-12-20T05:42:06;21.70;;;5.00;;
58412;SDS011;44209;52.952;6.790;2023-12-20T05:44:31;20.70;;;5.33;;
58412;SDS011;44209;52.952;6.790;2023-12-20T05:46:57;25.63;;;5.77;;
58412;SDS011;44209;52.952;6.790;2023-12-20T05:49:23;23.50;;;5.53;;
58412;SDS011;44209;52.952;6.790;2023-12-20T05:51:48;22.60;;;5.63;;
58412;SDS011;44209;52.952;6.790;2023-12-20T05:54:16;22.17;;;5.27;;
58412;SDS011;44209;52.952;6.790;2023-12-20T05:56:41;24.97;;;5.40;;
58412;SDS011;44209;52.952;6.790;2023-12-20T05:59:07;25.20;;;6.13;;
58412;SDS011;44209;52.952;6.790;2023-12-20T06:01:33;24.07;;;6.20;;
58412;SDS011;44209;52.952;6.790;2023-12-20T06:03:59;19.50;;;5.43;;
58412;SDS011;44209;52.952;6.790;2023-12-20T06:06:24;27.83;;;5.53;;
58412;SDS011;44209;52.952;6.790;2023-12-20T06:08:50;23.03;;;5.53;;
58412;SDS011;44209;52.952;6.790;2023-12-20T06:11:16;23.33;;;5.67;;
58412;SDS011;44209;52.952;6.790;2023-12-20T06:13:41;22.63;;;5.47;;
58412;SDS011;44209;52.952;6.790;2023-12-20T06:16:07;21.90;;;6.00;;
58412;SDS011;44209;52.952;6.790;2023-12-20T06:18:33;18.53;;;5.23;;
58412;SDS011;44209;52.952;6.790;2023-12-20T06:20:58;19.40;;;4.70;;
58412;SDS011;44209;52.952;6.790;2023-12-20T06:23:24;21.67;;;6.20;;
58412;SDS011;44209;52.952;6.790;2023-12-20T06:25:50;21.03;;;5.67;;
58412;SDS011;44209;52.952;6.790;2023-12-20T06:28:15;22.57;;;5.90;;
58412;SDS011;44209;52.952;6.790;2023-12-20T06:30:41;25.67;;;5.67;;
58412;SDS011;44209;52.952;6.790;2023-12-20T06:33:07;24.17;;;5.50;;
58412;SDS011;44209;52.952;6.790;2023-12-20T06:35:34;18.27;;;5.10;;
58412;SDS011;44209;52.952;6.790;2023-12-20T06:38:00;24.83;;;5.23;;
58412;SDS011;44209;52.952;6.790;2023-12-20T06:40:26;21.63;;;5.43;;
58412;SDS011;44209;52.952;6.790;2023-12-20T06:42:52;25.77;;;5.30;;
58412;SDS011;44209;52.952;6.790;2023-12-20T06:45:17;24.63;;;6.13;;
58412;SDS011;44209;52.952;6.790;2023-12-20T06:47:43;24.03;;;5.57;;
58412;SDS011;44209;52.952;6.790;2023-12-20T06:50:09;20.40;;;5.60;;
58412;SDS011;44209;52.952;6.790;2023-12-20T06:52:34;20.60;;;4.97;;
58412;SDS011;44209;52.952;6.790;2023-12-20T06:55:00;25.67;;;5.57;;
58412;SDS011;44209;52.952;6.790;2023-12-20T06:57:26;22.07;;;5.17;;
58412;SDS011;44209;52.952;6.790;2023-12-20T06:59:52;25.90;;;5.80;;
58412;SDS011;44209;52.952;6.790;2023-12-20T07:02:18;22.77;;;5.57;;
58412;SDS011;44209;52.952;6.790;2023-12-20T07:04:44;22.67;;;5.40;;
58412;SDS011;44209;52.952;6.790;2023-12-20T07:07:10;22.27;;;5.47;;
58412;SDS011;44209;52.952;6.790;2023-12-20T07:09:35;30.60;;;6.07;;
58412;SDS011;44209;52.952;6.790;2023-12-20T07:12:01;18.83;;;5.03;;
58412;SDS011;44209;52.952;6.790;2023-12-20T07:14:27;25.47;;;6.07;;
58412;SDS011;44209;52.952;6.790;2023-12-20T07:16:54;22.73;;;5.87;;
58412;SDS011;44209;52.952;6.790;2023-12-20T07:19:19;19.70;;;5.20;;
58412;SDS011;44209;52.952;6.790;2023-12-20T07:21:45;28.17;;;6.10;;
58412;SDS011;44209;52.952;6.790;2023-12-20T07:24:11;21.17;;;5.17;;
58412;SDS011;44209;52.952;6.790;2023-12-20T07:26:37;29.13;;;5.73;;
58412;SDS011;44209;52.952;6.790;2023-12-20T07:29:03;26.93;;;5.57;;
58412;SDS011;44209;52.952;6.790;2023-12-20T07:31:29;19.00;;;5.40;;
58412;SDS011;44209;52.952;6.790;2023-12-20T07:33:55;24.20;;;5.53;;
58412;SDS011;44209;52.952;6.790;2023-12-20T07:36:21;24.53;;;6.00;;
58412;SDS011;44209;52.952;6.790;2023-12-20T07:38:47;25.30;;;5.83;;
58412;SDS011;44209;52.952;6.790;2023-12-20T07:41:13;21.50;;;5.53;;
58412;SDS011;44209;52.952;6.790;2023-12-20T07:43:40;21.07;;;5.53;;
58412;SDS011;44209;52.952;6.790;2023-12-20T07:46:07;25.97;;;6.30;;
58412;SDS011;44209;52.952;6.790;2023-12-20T07:48:36;23.90;;;5.43;;
58412;SDS011;44209;52.952;6.790;2023-12-20T07:51:03;24.10;;;6.03;;
58412;SDS011;44209;52.952;6.790;2023-12-20T07:53:30;20.07;;;5.73;;
58412;SDS011;44209;52.952;6.790;2023-12-20T07:55:56;22.30;;;5.80;;
58412;SDS011;44209;52.952;6.790;2023-12-20T07:58:22;17.67;;;5.57;;
58412;SDS011;44209;52.952;6.790;2023-12-20T08:00:48;29.50;;;6.63;;
58412;SDS011;44209;52.952;6.790;2023-12-20T08:03:13;21.90;;;5.40;;
58412;SDS011;44209;52.952;6.790;2023-12-20T08:05:39;18.87;;;5.80;;
58412;SDS011;44209;52.952;6.790;2023-12-20T08:08:05;22.13;;;6.00;;
58412;SDS011;44209;52.952;6.790;2023-12-20T08:10:31;24.50;;;5.73;;
58412;SDS011;44209;52.952;6.790;2023-12-20T08:12:57;24.83;;;5.17;;
58412;SDS011;44209;52.952;6.790;2023-12-20T08:15:23;24.47;;;5.23;;
58412;SDS011;44209;52.952;6.790;2023-12-20T08:17:49;19.70;;;5.53;;
58412;SDS011;44209;52.952;6.790;2023-12-20T08:20:18;28.80;;;5.73;;
58412;SDS011;44209;52.952;6.790;2023-12-20T08:22:44;20.73;;;5.97;;
58412;SDS011;44209;52.952;6.790;2023-12-20T08:25:09;28.50;;;5.60;;
58412;SDS011;44209;52.952;6.790;2023-12-20T08:27:42;25.43;;;5.90;;
58412;SDS011;44209;52.952;6.790;2023-12-20T08:32:33;30.17;;;5.67;;
58412;SDS011;44209;52.952;6.790;2023-12-20T08:34:59;27.63;;;5.10;;
58412;SDS011;44209;52.952;6.790;2023-12-20T08:37:25;19.77;;;5.47;;
58412;SDS011;44209;52.952;6.790;2023-12-20T08:39:50;21.73;;;5.27;;
58412;SDS011;44209;52.952;6.790;2023-12-20T08:42:16;23.23;;;5.77;;
58412;SDS011;44209;52.952;6.790;2023-12-20T08:44:42;19.77;;;4.83;;
58412;SDS011;44209;52.952;6.790;2023-12-20T08:47:08;22.40;;;5.00;;
58412;SDS011;44209;52.952;6.790;2023-12-20T08:49:38;16.60;;;3.40;;
58412;SDS011;44209;52.952;6.790;2023-12-20T08:52:04;19.63;;;4.00;;
58412;SDS011;44209;52.952;6.790;2023-12-20T08:54:30;13.43;;;3.87;;
58412;SDS011;44209;52.952;6.790;2023-12-20T08:56:56;13.53;;;4.00;;
58412;SDS011;44209;52.952;6.790;2023-12-20T08:59:22;15.03;;;3.60;;
58412;SDS011;44209;52.952;6.790;2023-12-20T09:01:48;14.77;;;4.10;;
58412;SDS011;44209;52.952;6.790;2023-12-20T09:04:19;18.20;;;3.57;;
58412;SDS011;44209;52.952;6.790;2023-12-20T09:06:45;17.80;;;4.23;;
58412;SDS011;44209;52.952;6.790;2023-12-20T09:09:11;21.83;;;5.50;;
58412;SDS011;44209;52.952;6.790;2023-12-20T09:11:38;15.83;;;4.60;;
58412;SDS011;44209;52.952;6.790;2023-12-20T09:14:04;22.97;;;4.83;;
58412;SDS011;44209;52.952;6.790;2023-12-20T09:16:30;15.20;;;4.67;;
58412;SDS011;44209;52.952;6.790;2023-12-20T09:18:56;18.80;;;5.30;;
58412;SDS011;44209;52.952;6.790;2023-12-20T09:21:22;25.93;;;6.03;;
58412;SDS011;44209;52.952;6.790;2023-12-20T09:23:48;22.67;;;5.87;;
58412;SDS011;44209;52.952;6.790;2023-12-20T09:26:14;27.17;;;5.67;;
58412;SDS011;44209;52.952;6.790;2023-12-20T09:28:40;21.90;;;5.37;;
58412;SDS011;44209;52.952;6.790;2023-12-20T09:31:06;20.47;;;5.87;;
58412;SDS011;44209;52.952;6.790;2023-12-20T09:33:32;19.83;;;4.93;;
58412;SDS011;44209;52.952;6.790;2023-12-20T09:35:59;22.87;;;5.33;;
58412;SDS011;44209;52.952;6.790;2023-12-20T09:38:25;25.10;;;5.77;;
58412;SDS011;44209;52.952;6.790;2023-12-20T09:40:51;9.83;;;2.70;;
58412;SDS011;44209;52.952;6.790;2023-12-20T09:43:19;10.03;;;2.57;;
58412;SDS011;44209;52.952;6.790;2023-12-20T09:45:46;7.03;;;1.63;;
58412;SDS011;44209;52.952;6.790;2023-12-20T09:48:13;7.73;;;1.80;;
58412;SDS011;44209;52.952;6.790;2023-12-20T09:50:42;7.87;;;1.93;;
58412;SDS011;44209;52.952;6.790;2023-12-20T09:53:08;8.00;;;2.00;;
58412;SDS011;44209;52.952;6.790;2023-12-20T09:55:37;7.17;;;1.53;;
58412;SDS011;44209;52.952;6.790;2023-12-20T09:58:05;5.37;;;1.20;;
58412;SDS011;44209;52.952;6.790;2023-12-20T10:00:32;4.70;;;1.57;;
58412;SDS011;44209;52.952;6.790;2023-12-20T10:02:58;7.97;;;1.97;;
58412;SDS011;44209;52.952;6.790;2023-12-20T10:05:26;5.73;;;1.60;;
58412;SDS011;44209;52.952;6.790;2023-12-20T10:07:56;8.40;;;1.80;;
58412;SDS011;44209;52.952;6.790;2023-12-20T10:10:22;6.67;;;1.50;;
58412;SDS011;44209;52.952;6.790;2023-12-20T10:13:02;5.87;;;1.43;;
58412;SDS011;44209;52.952;6.790;2023-12-20T10:15:29;5.73;;;1.57;;
58412;SDS011;44209;52.952;6.790;2023-12-20T10:17:56;4.63;;;1.37;;
58412;SDS011;44209;52.952;6.790;2023-12-20T10:20:22;7.10;;;1.67;;
58412;SDS011;44209;52.952;6.790;2023-12-20T10:22:48;9.60;;;1.40;;
58412;SDS011;44209;52.952;6.790;2023-12-20T10:25:14;9.17;;;1.60;;
58412;SDS011;44209;52.952;6.790;2023-12-20T10:27:39;8.60;;;2.33;;
58412;SDS011;44209;52.952;6.790;2023-12-20T10:30:05;11.87;;;1.90;;
58412;SDS011;44209;52.952;6.790;2023-12-20T10:32:31;7.67;;;1.87;;
58412;SDS011;44209;52.952;6.790;2023-12-20T10:34:57;7.60;;;1.90;;
58412;SDS011;44209;52.952;6.790;2023-12-20T10:37:24;9.87;;;2.13;;
58412;SDS011;44209;52.952;6.790;2023-12-20T10:39:51;6.47;;;2.07;;
58412;SDS011;44209;52.952;6.790;2023-12-20T10:42:21;10.50;;;2.13;;
58412;SDS011;44209;52.952;6.790;2023-12-20T10:44:48;7.27;;;2.30;;
58412;SDS011;44209;52.952;6.790;2023-12-20T10:47:14;7.93;;;2.27;;
58412;SDS011;44209;52.952;6.790;2023-12-20T10:49:41;12.47;;;2.23;;
58412;SDS011;44209;52.952;6.790;2023-12-20T10:52:07;8.07;;;2.10;;
58412;SDS011;44209;52.952;6.790;2023-12-20T10:54:34;7.63;;;2.17;;
58412;SDS011;44209;52.952;6.790;2023-12-20T10:56:59;8.87;;;1.90;;
58412;SDS011;44209;52.952;6.790;2023-12-20T10:59:28;10.47;;;1.93;;
58412;SDS011;44209;52.952;6.790;2023-12-20T11:01:58;7.90;;;2.00;;
58412;SDS011;44209;52.952;6.790;2023-12-20T11:04:28;8.23;;;2.03;;
58412;SDS011;44209;52.952;6.790;2023-12-20T11:09:43;10.73;;;2.07;;
58412;SDS011;44209;52.952;6.790;2023-12-20T11:12:36;7.50;;;1.90;;
58412;SDS011;44209;52.952;6.790;2023-12-20T11:15:06;8.07;;;1.95;;
58412;SDS011;44209;52.952;6.790;2023-12-20T11:17:32;8.83;;;2.03;;
58412;SDS011;44209;52.952;6.790;2023-12-20T11:22:27;15.00;;;2.33;;
58412;SDS011;44209;52.952;6.790;2023-12-20T11:24:58;8.90;;;1.87;;
58412;SDS011;44209;52.952;6.790;2023-12-20T11:27:31;8.20;;;1.97;;
58412;SDS011;44209;52.952;6.790;2023-12-20T11:29:58;11.10;;;2.10;;
58412;SDS011;44209;52.952;6.790;2023-12-20T11:34:59;8.77;;;1.80;;
58412;SDS011;44209;52.952;6.790;2023-12-20T11:37:29;10.87;;;2.10;;
58412;SDS011;44209;52.952;6.790;2023-12-20T11:40:08;12.73;;;2.90;;
58412;SDS011;44209;52.952;6.790;2023-12-20T11:42:43;9.73;;;2.07;;
58412;SDS011;44209;52.952;6.790;2023-12-20T11:45:10;10.63;;;2.93;;
58412;SDS011;44209;52.952;6.790;2023-12-20T11:47:40;7.97;;;2.40;;
58412;SDS011;44209;52.952;6.790;2023-12-20T11:50:11;9.38;;;2.30;;
58412;SDS011;44209;52.952;6.790;2023-12-20T11:52:37;12.30;;;2.47;;
58412;SDS011;44209;52.952;6.790;2023-12-20T11:55:03;9.87;;;2.60;;
58412;SDS011;44209;52.952;6.790;2023-12-20T11:57:30;9.43;;;2.30;;
58412;SDS011;44209;52.952;6.790;2023-12-20T11:59:56;9.30;;;2.80;;
58412;SDS011;44209;52.952;6.790;2023-12-20T12:02:22;13.43;;;2.50;;
58412;SDS011;44209;52.952;6.790;2023-12-20T12:04:49;15.43;;;3.17;;
58412;SDS011;44209;52.952;6.790;2023-12-20T12:07:17;8.07;;;2.57;;
58412;SDS011;44209;52.952;6.790;2023-12-20T12:09:43;13.73;;;2.50;;
58412;SDS011;44209;52.952;6.790;2023-12-20T12:12:09;15.30;;;2.77;;
58412;SDS011;44209;52.952;6.790;2023-12-20T12:14:37;16.63;;;2.53;;
58412;SDS011;44209;52.952;6.790;2023-12-20T12:17:03;8.03;;;2.20;;
58412;SDS011;44209;52.952;6.790;2023-12-20T12:19:30;12.03;;;2.70;;
58412;SDS011;44209;52.952;6.790;2023-12-20T12:22:05;11.33;;;2.67;;
58412;SDS011;44209;52.952;6.790;2023-12-20T12:24:39;13.80;;;2.97;;
58412;SDS011;44209;52.952;6.790;2023-12-20T12:27:06;9.80;;;2.37;;
58412;SDS011;44209;52.952;6.790;2023-12-20T12:29:32;11.53;;;2.60;;
58412;SDS011;44209;52.952;6.790;2023-12-20T12:31:59;10.90;;;2.60;;
58412;SDS011;44209;52.952;6.790;2023-12-20T12:34:27;12.57;;;2.37;;
58412;SDS011;44209;52.952;6.790;2023-12-20T12:36:53;16.10;;;2.90;;
58412;SDS011;44209;52.952;6.790;2023-12-20T12:39:19;11.50;;;2.40;;
58412;SDS011;44209;52.952;6.790;2023-12-20T12:41:45;10.63;;;2.60;;
58412;SDS011;44209;52.952;6.790;2023-12-20T12:44:10;13.50;;;3.20;;
58412;SDS011;44209;52.952;6.790;2023-12-20T12:46:36;10.70;;;3.00;;
58412;SDS011;44209;52.952;6.790;2023-12-20T12:49:02;14.40;;;3.17;;
58412;SDS011;44209;52.952;6.790;2023-12-20T12:51:27;9.47;;;2.47;;
58412;SDS011;44209;52.952;6.790;2023-12-20T12:53:53;14.30;;;2.80;;
58412;SDS011;44209;52.952;6.790;2023-12-20T12:56:19;13.27;;;3.30;;
58412;SDS011;44209;52.952;6.790;2023-12-20T12:58:46;15.40;;;2.87;;
58412;SDS011;44209;52.952;6.790;2023-12-20T13:01:12;8.67;;;2.43;;
58412;SDS011;44209;52.952;6.790;2023-12-20T13:03:38;11.77;;;3.27;;
58412;SDS011;44209;52.952;6.790;2023-12-20T13:06:03;10.87;;;3.13;;
58412;SDS011;44209;52.952;6.790;2023-12-20T13:08:31;11.93;;;2.80;;
58412;SDS011;44209;52.952;6.790;2023-12-20T13:10:57;11.20;;;2.60;;
58412;SDS011;44209;52.952;6.790;2023-12-20T13:13:26;13.63;;;2.50;;
58412;SDS011;44209;52.952;6.790;2023-12-20T13:15:52;15.10;;;2.57;;
58412;SDS011;44209;52.952;6.790;2023-12-20T13:18:20;16.20;;;2.67;;
58412;SDS011;44209;52.952;6.790;2023-12-20T13:20:47;15.63;;;3.07;;
58412;SDS011;44209;52.952;6.790;2023-12-20T13:23:12;12.37;;;2.93;;
58412;SDS011;44209;52.952;6.790;2023-12-20T13:25:39;13.73;;;2.73;;
58412;SDS011;44209;52.952;6.790;2023-12-20T13:28:05;13.47;;;3.20;;
58412;SDS011;44209;52.952;6.790;2023-12-20T13:30:31;10.77;;;2.77;;
58412;SDS011;44209;52.952;6.790;2023-12-20T13:32:56;11.43;;;2.50;;
58412;SDS011;44209;52.952;6.790;2023-12-20T13:35:22;10.40;;;2.47;;
58412;SDS011;44209;52.952;6.790;2023-12-20T13:37:48;12.93;;;2.70;;
58412;SDS011;44209;52.952;6.790;2023-12-20T13:40:13;7.60;;;2.40;;
58412;SDS011;44209;52.952;6.790;2023-12-20T13:42:39;5.87;;;1.83;;
58412;SDS011;44209;52.952;6.790;2023-12-20T13:45:05;10.07;;;2.17;;
58412;SDS011;44209;52.952;6.790;2023-12-20T13:47:32;6.50;;;1.90;;
58412;SDS011;44209;52.952;6.790;2023-12-20T13:49:58;8.17;;;1.80;;
58412;SDS011;44209;52.952;6.790;2023-12-20T13:52:24;7.23;;;1.97;;
58412;SDS011;44209;52.952;6.790;2023-12-20T13:54:49;7.30;;;1.90;;
58412;SDS011;44209;52.952;6.790;2023-12-20T13:57:15;11.77;;;2.80;;
58412;SDS011;44209;52.952;6.790;2023-12-20T13:59:41;8.13;;;2.33;;
58412;SDS011;44209;52.952;6.790;2023-12-20T14:02:07;7.90;;;1.70;;
58412;SDS011;44209;52.952;6.790;2023-12-20T14:04:32;8.23;;;2.10;;
58412;SDS011;44209;52.952;6.790;2023-12-20T14:06:58;8.00;;;1.80;;
58412;SDS011;44209;52.952;6.790;2023-12-20T14:09:24;10.43;;;2.10;;
58412;SDS011;44209;52.952;6.790;2023-12-20T14:11:50;7.90;;;1.90;;
58412;SDS011;44209;52.952;6.790;2023-12-20T14:14:16;12.93;;;2.40;;
58412;SDS011;44209;52.952;6.790;2023-12-20T14:16:41;9.23;;;2.10;;
58412;SDS011;44209;52.952;6.790;2023-12-20T14:19:10;5.97;;;1.93;;
58412;SDS011;44209;52.952;6.790;2023-12-20T14:21:36;6.77;;;1.73;;
58412;SDS011;44209;52.952;6.790;2023-12-20T14:24:02;9.40;;;2.30;;
58412;SDS011;44209;52.952;6.790;2023-12-20T14:26:29;6.63;;;1.90;;
58412;SDS011;44209;52.952;6.790;2023-12-20T14:28:55;6.67;;;1.87;;
58412;SDS011;44209;52.952;6.790;2023-12-20T14:31:21;7.70;;;2.20;;
58412;SDS011;44209;52.952;6.790;2023-12-20T14:33:49;7.77;;;2.07;;
58412;SDS011;44209;52.952;6.790;2023-12-20T14:36:16;8.60;;;2.20;;
58412;SDS011;44209;52.952;6.790;2023-12-20T14:38:43;10.10;;;2.30;;
58412;SDS011;44209;52.952;6.790;2023-12-20T14:41:09;10.83;;;2.03;;
58412;SDS011;44209;52.952;6.790;2023-12-20T14:43:34;9.67;;;2.17;;